createdAt,value
2019-03-23T00:03:31.015Z,9.63
2019-03-23T00:08:26.350Z,6.20
2019-03-23T00:13:22.173Z,6.67
2019-03-23T00:18:17.690Z,6.43
2019-03-23T00:23:13.338Z,5.37
2019-03-23T00:28:08.592Z,7.57
2019-03-23T00:33:03.852Z,4.93
2019-03-23T00:37:59.123Z,4.87
2019-03-23T00:42:54.377Z,11.23
2019-03-23T00:47:49.642Z,7.33
2019-03-23T00:52:44.898Z,4.57
2019-03-23T00:57:40.154Z,5.93
2019-03-23T01:02:35.747Z,11.53
2019-03-23T01:07:37.731Z,7.17
2019-03-23T01:12:32.980Z,7.00
2019-03-23T01:17:28.246Z,12.43
2019-03-23T01:22:23.506Z,7.63
2019-03-23T01:27:19.258Z,7.93
2019-03-23T01:32:14.488Z,6.57
2019-03-23T01:37:09.739Z,8.57
2019-03-23T01:42:05.110Z,6.17
2019-03-23T01:47:00.366Z,8.30
2019-03-23T01:51:55.633Z,7.07
2019-03-23T01:56:50.910Z,6.17
2019-03-23T02:01:46.264Z,7.03
2019-03-23T02:06:41.574Z,7.43
2019-03-23T02:11:36.950Z,6.30
2019-03-23T02:16:32.542Z,11.50
2019-03-23T02:21:27.803Z,10.33
2019-03-23T02:26:23.381Z,8.23
2019-03-23T02:31:19.220Z,8.60
2019-03-23T02:36:14.471Z,6.53
2019-03-23T02:41:10.067Z,7.43
2019-03-23T02:46:05.399Z,11.50
2019-03-23T02:51:00.671Z,8.73
2019-03-23T02:55:55.914Z,10.53
2019-03-23T03:00:51.169Z,7.10
2019-03-23T03:05:46.692Z,7.20
2019-03-23T03:10:42.639Z,7.40
2019-03-23T03:15:37.965Z,6.83
2019-03-23T03:20:33.224Z,6.27
2019-03-23T03:25:28.507Z,6.43
2019-03-23T03:30:23.774Z,8.57
2019-03-23T03:35:19.015Z,5.23
2019-03-23T03:40:14.692Z,5.97
2019-03-23T03:45:13.392Z,5.53
2019-03-23T03:50:10.022Z,5.83
2019-03-23T03:55:05.407Z,10.70
2019-03-23T04:00:00.666Z,9.83
2019-03-23T04:04:56.198Z,6.03
2019-03-23T04:09:51.453Z,8.80
2019-03-23T04:14:47.007Z,6.80
2019-03-23T04:19:42.299Z,8.63
2019-03-23T04:24:37.914Z,10.27
2019-03-23T04:29:33.364Z,7.70
2019-03-23T04:34:28.624Z,8.60
2019-03-23T04:39:24.193Z,16.50
2019-03-23T04:44:19.466Z,14.50
2019-03-23T04:49:14.734Z,10.03
2019-03-23T04:54:10.005Z,10.60
2019-03-23T04:59:05.335Z,10.10
2019-03-23T05:04:01.396Z,12.07
2019-03-23T05:08:56.944Z,11.93
2019-03-23T05:13:52.220Z,10.83
2019-03-23T05:18:47.610Z,11.17
2019-03-23T05:23:45.770Z,13.13
2019-03-23T05:28:40.604Z,14.30
2019-03-23T05:33:35.863Z,14.10
2019-03-23T05:38:31.131Z,12.20
2019-03-23T05:43:26.402Z,12.17
2019-03-23T05:48:21.684Z,11.57
2019-03-23T05:53:17.120Z,13.40
2019-03-23T05:58:12.387Z,12.83
2019-03-23T06:03:07.979Z,12.47
2019-03-23T06:08:03.240Z,10.50
2019-03-23T06:12:58.508Z,10.77
2019-03-23T06:17:54.001Z,10.67
2019-03-23T06:22:49.327Z,11.47
2019-03-23T06:27:44.704Z,10.00
2019-03-23T06:32:39.954Z,8.77
2019-03-23T06:37:35.220Z,8.70
2019-03-23T06:42:30.486Z,9.17
2019-03-23T06:47:25.812Z,10.13
2019-03-23T06:52:21.126Z,11.53
2019-03-23T06:57:16.387Z,12.13
2019-03-23T07:02:14.715Z,10.80
2019-03-23T07:07:10.308Z,9.33
2019-03-23T07:12:05.801Z,8.97
2019-03-23T07:17:01.061Z,11.70
2019-03-23T07:21:56.730Z,11.23
2019-03-23T07:26:52.313Z,10.73
2019-03-23T07:31:47.587Z,10.57
2019-03-23T07:36:43.322Z,11.07
2019-03-23T07:41:38.594Z,12.27
2019-03-23T07:46:34.808Z,9.07
2019-03-23T07:51:30.074Z,11.27
2019-03-23T07:56:25.341Z,11.07
2019-03-23T08:01:20.606Z,13.17
2019-03-23T08:06:16.170Z,9.07
2019-03-23T08:11:14.876Z,9.03
2019-03-23T08:16:12.163Z,10.13
2019-03-23T08:21:07.981Z,12.80
2019-03-23T08:26:03.266Z,14.27
2019-03-23T08:30:58.540Z,11.27
2019-03-23T08:35:53.823Z,10.97
2019-03-23T08:40:49.297Z,12.60
2019-03-23T08:45:45.872Z,12.10
2019-03-23T08:50:41.177Z,12.17
2019-03-23T08:55:36.497Z,12.78
2019-03-23T09:00:31.837Z,12.50
2019-03-23T09:05:27.142Z,11.50
2019-03-23T09:10:28.303Z,14.97
2019-03-23T09:15:24.530Z,11.47
2019-03-23T09:20:20.248Z,14.83
2019-03-23T09:25:15.574Z,15.33
2019-03-23T09:30:11.266Z,12.60
2019-03-23T09:35:06.892Z,14.07
2019-03-23T09:40:10.053Z,13.63
2019-03-23T09:44:59.542Z,13.43
2019-03-23T09:49:57.057Z,13.47
2019-03-23T09:54:52.337Z,13.83
2019-03-23T09:59:47.728Z,12.07
2019-03-23T10:04:46.256Z,12.47
2019-03-23T10:09:41.543Z,13.43
2019-03-23T10:14:36.809Z,11.60
2019-03-23T10:19:32.424Z,12.17
2019-03-23T10:24:27.710Z,18.37
2019-03-23T10:29:28.999Z,12.90
2019-03-23T10:34:24.285Z,16.77
2019-03-23T10:39:19.561Z,13.93
2019-03-23T10:44:14.840Z,21.07
2019-03-23T10:49:10.407Z,16.53
2019-03-23T10:54:06.685Z,15.73
2019-03-23T10:59:02.205Z,18.77
2019-03-23T11:03:57.488Z,17.35
2019-03-23T11:08:52.754Z,18.12
2019-03-23T11:13:48.073Z,16.17
2019-03-23T11:18:43.793Z,19.17
2019-03-23T11:23:39.123Z,17.40
2019-03-23T11:28:34.368Z,17.93
2019-03-23T11:33:30.695Z,16.40
2019-03-23T11:38:25.956Z,19.70
2019-03-23T11:43:21.228Z,18.37
2019-03-23T11:48:16.516Z,24.43
2019-03-23T11:53:12.817Z,17.60
2019-03-23T11:58:08.098Z,25.08
2019-03-23T12:03:08.888Z,25.97
2019-03-23T12:08:04.333Z,21.17
2019-03-23T12:12:59.602Z,18.05
2019-03-23T12:18:04.185Z,17.17
2019-03-23T12:22:59.454Z,16.42
2019-03-23T12:27:56.630Z,18.25
2019-03-23T12:32:52.362Z,16.77
2019-03-23T12:37:47.735Z,17.00
2019-03-23T12:42:43.097Z,16.80
2019-03-23T12:47:38.372Z,17.07
2019-03-23T12:52:33.708Z,18.60
2019-03-23T12:57:28.968Z,17.90
2019-03-23T13:02:24.534Z,19.67
2019-03-23T13:07:21.153Z,18.30
2019-03-23T13:12:16.695Z,19.62
2019-03-23T13:17:11.959Z,18.32
2019-03-23T13:22:07.272Z,23.10
2019-03-23T13:27:02.878Z,18.50
2019-03-23T13:32:10.693Z,22.95
2019-03-23T13:37:05.995Z,18.20
2019-03-23T13:42:01.339Z,19.75
2019-03-23T13:46:56.961Z,18.98
2019-03-23T13:51:52.488Z,18.50
2019-03-23T13:56:47.985Z,17.15
2019-03-23T14:01:43.270Z,20.97
2019-03-23T14:06:38.795Z,16.30
2019-03-23T14:11:34.073Z,19.40
2019-03-23T14:16:29.335Z,17.83
2019-03-23T14:21:24.630Z,19.17
2019-03-23T14:26:20.539Z,18.33
2019-03-23T14:31:15.808Z,14.47
2019-03-23T14:36:11.153Z,17.07
2019-03-23T14:41:06.498Z,13.40
2019-03-23T14:46:01.815Z,15.20
2019-03-23T14:50:57.095Z,17.40
2019-03-23T14:55:52.366Z,15.00
2019-03-23T15:00:48.217Z,22.20
2019-03-23T15:05:43.543Z,25.53
2019-03-23T15:10:38.909Z,41.03
2019-03-23T15:15:34.181Z,45.13
2019-03-23T15:20:29.466Z,47.40
2019-03-23T15:25:24.992Z,47.50
2019-03-23T15:30:20.320Z,46.97
2019-03-23T15:35:15.913Z,48.53
2019-03-23T15:40:11.359Z,50.07
2019-03-23T15:45:08.191Z,49.17
2019-03-23T15:50:03.854Z,84.67
2019-03-23T15:54:59.130Z,55.90
2019-03-23T15:59:54.697Z,53.67
2019-03-23T16:04:50.026Z,57.73
2019-03-23T16:09:45.316Z,59.60
2019-03-23T16:14:40.586Z,63.60
2019-03-23T16:19:36.290Z,63.47
2019-03-23T16:24:31.563Z,64.03
2019-03-23T16:29:26.908Z,62.40
2019-03-23T16:34:22.182Z,57.23
2019-03-23T16:39:17.464Z,59.67
2019-03-23T16:44:12.799Z,56.10
2019-03-23T16:49:08.073Z,51.87
2019-03-23T16:54:03.755Z,51.40
2019-03-23T16:58:59.219Z,52.60
2019-03-23T17:03:54.492Z,49.87
2019-03-23T17:08:49.849Z,49.47
2019-03-23T17:13:45.129Z,52.00
2019-03-23T17:18:40.397Z,49.77
2019-03-23T17:23:35.672Z,44.97
2019-03-23T17:28:30.942Z,48.63
2019-03-23T17:33:26.229Z,48.03
2019-03-23T17:38:21.548Z,47.63
2019-03-23T17:43:16.838Z,46.50
2019-03-23T17:48:12.184Z,49.90
2019-03-23T17:53:07.570Z,53.97
2019-03-23T17:58:02.836Z,54.37
2019-03-23T18:02:58.551Z,54.63
2019-03-23T18:07:53.815Z,55.53
2019-03-23T18:12:49.102Z,54.83
2019-03-23T18:17:44.649Z,57.03
2019-03-23T18:22:40.023Z,60.93
2019-03-23T18:27:35.320Z,57.77
2019-03-23T18:32:30.603Z,59.87
2019-03-23T18:37:26.183Z,66.90
2019-03-23T18:42:21.478Z,64.93
2019-03-23T18:47:16.881Z,67.37
2019-03-23T18:52:12.183Z,66.07
2019-03-23T18:57:07.543Z,63.23
2019-03-23T19:02:03.855Z,64.53
2019-03-23T19:06:59.161Z,62.67
2019-03-23T19:11:54.442Z,69.93
2019-03-23T19:16:50.396Z,67.77
2019-03-23T19:21:45.687Z,68.77
2019-03-23T19:26:40.975Z,73.47
2019-03-23T19:31:36.571Z,62.03
2019-03-23T19:36:34.140Z,70.37
2019-03-23T19:41:29.698Z,65.70
2019-03-23T19:46:25.330Z,66.00
2019-03-23T19:51:26.918Z,71.77
2019-03-23T19:56:22.544Z,65.10
2019-03-23T20:01:17.833Z,65.50
2019-03-23T20:06:13.133Z,62.47
2019-03-23T20:11:08.434Z,57.47
2019-03-23T20:16:03.785Z,57.23
2019-03-23T20:20:59.370Z,59.37
2019-03-23T20:25:54.633Z,56.90
2019-03-23T20:30:50.171Z,55.87
2019-03-23T20:35:45.534Z,56.83
2019-03-23T20:40:40.808Z,52.70
2019-03-23T20:45:36.761Z,56.73
2019-03-23T20:50:32.151Z,50.40
2019-03-23T20:55:28.962Z,60.23
2019-03-23T21:00:24.882Z,61.97
2019-03-23T21:05:20.165Z,54.07
2019-03-23T21:10:15.457Z,57.70
2019-03-23T21:15:10.896Z,58.07
2019-03-23T21:20:06.467Z,54.33
2019-03-23T21:25:01.746Z,56.50
2019-03-23T21:29:56.996Z,54.33
2019-03-23T21:34:52.325Z,49.03
2019-03-23T21:39:47.620Z,49.67
2019-03-23T21:44:43.710Z,51.30
2019-03-23T21:49:38.990Z,48.00
2019-03-23T21:54:34.307Z,45.03
2019-03-23T21:59:29.575Z,45.40
2019-03-23T22:04:24.852Z,52.90
2019-03-23T22:09:20.111Z,46.67
2019-03-23T22:14:15.370Z,44.90
2019-03-23T22:19:10.640Z,42.07
2019-03-23T22:24:05.946Z,49.17
2019-03-23T22:29:04.368Z,41.00
2019-03-23T22:33:59.943Z,44.07
2019-03-23T22:38:55.222Z,50.73
2019-03-23T22:43:50.562Z,41.47
2019-03-23T22:48:45.977Z,45.13
2019-03-23T22:53:41.274Z,43.70
2019-03-23T22:58:36.568Z,44.17
2019-03-23T23:03:32.171Z,43.67
2019-03-23T23:08:27.432Z,45.00
2019-03-23T23:13:22.699Z,42.40
2019-03-23T23:18:18.101Z,42.43
2019-03-23T23:23:13.664Z,40.13
2019-03-23T23:28:09.291Z,44.30
2019-03-23T23:33:04.607Z,51.23
2019-03-23T23:38:00.173Z,45.17
2019-03-23T23:42:55.447Z,39.03
2019-03-23T23:47:50.818Z,42.93
2019-03-23T23:52:46.174Z,39.47
2019-03-23T23:57:41.456Z,46.37
